sensor_id;sensor_type;location;lat;lon;timestamp;pressure;altitude;pressure_sealevel;temperature;humidity
22261;BME280;11299;43.202;27.920;2023-04-23T00:00:47;101337.00;;;8.29;100.00
22261;BME280;11299;43.202;27.920;2023-04-23T00:03:13;101353.59;;;8.16;100.00
22261;BME280;11299;43.202;27.920;2023-04-23T00:05:40;101315.97;;;8.10;100.00
22261;BME280;11299;43.202;27.920;2023-04-23T00:08:08;101352.47;;;8.30;100.00
22261;BME280;11299;43.202;27.920;2023-04-23T00:10:34;101232.03;;;7.56;100.00
22261;BME280;11299;43.202;27.920;2023-04-23T00:13:00;101362.88;;;8.28;100.00
22261;BME280;11299;43.202;27.920;2023-04-23T00:15:26;101352.81;;;8.09;100.00
22261;BME280;11299;43.202;27.920;2023-04-23T00:17:51;101225.69;;;7.49;100.00
22261;BME280;11299;43.202;27.920;2023-04-23T00:20:17;101277.63;;;7.77;100.00
22261;BME280;11299;43.202;27.920;2023-04-23T00:22:43;101334.78;;;8.13;100.00
22261;BME280;11299;43.202;27.920;2023-04-23T00:25:09;101296.19;;;7.88;100.00
22261;BME280;11299;43.202;27.920;2023-04-23T00:27:35;101344.72;;;8.14;100.00
22261;BME280;11299;43.202;27.920;2023-04-23T00:30:01;101306.25;;;8.01;100.00
22261;BME280;11299;43.202;27.920;2023-04-23T00:32:27;101322.28;;;8.10;100.00
22261;BME280;11299;43.202;27.920;2023-04-23T00:34:52;101319.59;;;8.04;100.00
22261;BME280;11299;43.202;27.920;2023-04-23T00:37:19;101333.28;;;8.17;100.00
22261;BME280;11299;43.202;27.920;2023-04-23T00:39:45;101252.44;;;7.74;100.00
22261;BME280;11299;43.202;27.920;2023-04-23T00:42:10;101214.28;;;7.52;100.00
22261;BME280;11299;43.202;27.920;2023-04-23T00:44:39;101226.22;;;7.64;100.00
22261;BME280;11299;43.202;27.920;2023-04-23T00:47:08;101310.44;;;8.10;100.00
22261;BME280;11299;43.202;27.920;2023-04-23T00:49:35;101316.13;;;8.15;100.00
22261;BME280;11299;43.202;27.920;2023-04-23T00:52:01;101313.97;;;8.17;100.00
22261;BME280;11299;43.202;27.920;2023-04-23T00:54:27;101304.31;;;8.08;100.00
22261;BME280;11299;43.202;27.920;2023-04-23T00:56:54;101345.91;;;8.31;100.00
22261;BME280;11299;43.202;27.920;2023-04-23T00:59:25;101320.63;;;8.09;100.00
22261;BME280;11299;43.202;27.920;2023-04-23T01:01:51;101232.38;;;7.67;100.00
22261;BME280;11299;43.202;27.920;2023-04-23T01:04:18;101310.16;;;8.18;100.00
22261;BME280;11299;43.202;27.920;2023-04-23T01:06:43;101312.25;;;8.22;100.00
22261;BME280;11299;43.202;27.920;2023-04-23T01:09:11;101333.19;;;8.30;100.00
22261;BME280;11299;43.202;27.920;2023-04-23T01:11:38;101341.31;;;8.25;100.00
22261;BME280;11299;43.202;27.920;2023-04-23T01:14:04;101220.66;;;7.46;100.00
22261;BME280;11299;43.202;27.920;2023-04-23T01:16:31;101314.09;;;8.04;100.00
22261;BME280;11299;43.202;27.920;2023-04-23T01:18:56;101301.47;;;7.90;100.00
22261;BME280;11299;43.202;27.920;2023-04-23T01:21:23;101338.00;;;8.10;100.00
22261;BME280;11299;43.202;27.920;2023-04-23T01:23:49;101287.06;;;7.56;100.00
22261;BME280;11299;43.202;27.920;2023-04-23T01:26:15;101266.81;;;7.44;100.00
22261;BME280;11299;43.202;27.920;2023-04-23T01:28:43;101214.50;;;7.13;100.00
22261;BME280;11299;43.202;27.920;2023-04-23T01:31:10;101346.63;;;7.82;100.00
22261;BME280;11299;43.202;27.920;2023-04-23T01:33:39;101215.72;;;7.17;100.00
22261;BME280;11299;43.202;27.920;2023-04-23T01:36:04;101332.91;;;7.76;100.00
22261;BME280;11299;43.202;27.920;2023-04-23T01:38:32;101326.31;;;7.77;100.00
22261;BME280;11299;43.202;27.920;2023-04-23T01:40:58;101323.00;;;7.68;100.00
22261;BME280;11299;43.202;27.920;2023-04-23T01:43:24;101193.69;;;6.86;100.00
22261;BME280;11299;43.202;27.920;2023-04-23T01:45:50;101307.91;;;7.39;100.00
22261;BME280;11299;43.202;27.920;2023-04-23T01:48:16;101344.97;;;7.75;100.00
22261;BME280;11299;43.202;27.920;2023-04-23T01:50:42;101220.88;;;7.07;100.00
22261;BME280;11299;43.202;27.920;2023-04-23T01:53:07;101342.44;;;7.80;100.00
22261;BME280;11299;43.202;27.920;2023-04-23T01:55:35;101305.88;;;7.59;100.00
22261;BME280;11299;43.202;27.920;2023-04-23T01:58:02;101237.34;;;7.14;100.00
22261;BME280;11299;43.202;27.920;2023-04-23T02:00:27;101202.50;;;7.01;100.00
22261;BME280;11299;43.202;27.920;2023-04-23T02:02:53;101340.47;;;7.87;100.00
22261;BME280;11299;43.202;27.920;2023-04-23T02:05:18;101299.34;;;7.54;100.00
22261;BME280;11299;43.202;27.920;2023-04-23T02:07:46;101327.22;;;7.71;100.00
22261;BME280;11299;43.202;27.920;2023-04-23T02:10:12;101347.09;;;7.79;100.00
22261;BME280;11299;43.202;27.920;2023-04-23T02:12:39;101337.41;;;7.70;100.00
22261;BME280;11299;43.202;27.920;2023-04-23T02:15:05;101333.59;;;7.64;100.00
22261;BME280;11299;43.202;27.920;2023-04-23T02:17:32;101334.03;;;7.61;100.00
22261;BME280;11299;43.202;27.920;2023-04-23T02:19:57;101270.78;;;7.11;100.00
22261;BME280;11299;43.202;27.920;2023-04-23T02:22:23;101327.34;;;7.51;100.00
22261;BME280;11299;43.202;27.920;2023-04-23T02:24:51;101350.97;;;7.65;100.00
22261;BME280;11299;43.202;27.920;2023-04-23T02:27:17;101323.09;;;7.48;100.00
22261;BME280;11299;43.202;27.920;2023-04-23T02:29:43;101282.19;;;7.21;100.00
22261;BME280;11299;43.202;27.920;2023-04-23T02:32:09;101355.81;;;7.70;100.00
22261;BME280;11299;43.202;27.920;2023-04-23T02:34:34;101267.19;;;7.10;100.00
22261;BME280;11299;43.202;27.920;2023-04-23T02:37:00;101220.78;;;6.76;100.00
22261;BME280;11299;43.202;27.920;2023-04-23T02:39:25;101375.22;;;7.43;100.00
22261;BME280;11299;43.202;27.920;2023-04-23T02:41:51;101350.84;;;7.40;100.00
22261;BME280;11299;43.202;27.920;2023-04-23T02:44:16;101335.03;;;7.29;100.00
22261;BME280;11299;43.202;27.920;2023-04-23T02:46:42;101308.88;;;7.07;100.00
22261;BME280;11299;43.202;27.920;2023-04-23T02:49:07;101326.38;;;7.19;100.00
22261;BME280;11299;43.202;27.920;2023-04-23T02:51:33;101373.94;;;7.39;100.00
22261;BME280;11299;43.202;27.920;2023-04-23T02:53:58;101322.41;;;7.15;100.00
22261;BME280;11299;43.202;27.920;2023-04-23T02:56:24;101240.06;;;6.70;100.00
22261;BME280;11299;43.202;27.920;2023-04-23T02:58:49;101360.44;;;7.25;100.00
22261;BME280;11299;43.202;27.920;2023-04-23T03:01:15;101356.13;;;7.42;100.00
22261;BME280;11299;43.202;27.920;2023-04-23T03:03:41;101343.94;;;7.25;100.00
22261;BME280;11299;43.202;27.920;2023-04-23T03:06:06;101252.72;;;6.77;100.00
22261;BME280;11299;43.202;27.920;2023-04-23T03:08:32;101352.00;;;7.26;100.00
22261;BME280;11299;43.202;27.920;2023-04-23T03:10:58;101335.50;;;7.20;100.00
22261;BME280;11299;43.202;27.920;2023-04-23T03:13:24;101255.72;;;6.76;100.00
22261;BME280;11299;43.202;27.920;2023-04-23T03:15:51;101365.53;;;7.28;100.00
22261;BME280;11299;43.202;27.920;2023-04-23T03:18:17;101251.88;;;6.70;100.00
22261;BME280;11299;43.202;27.920;2023-04-23T03:20:43;101363.34;;;7.36;100.00
22261;BME280;11299;43.202;27.920;2023-04-23T03:23:08;101383.69;;;7.29;100.00
22261;BME280;11299;43.202;27.920;2023-04-23T03:25:34;101303.38;;;7.07;100.00
22261;BME280;11299;43.202;27.920;2023-04-23T03:27:59;101353.84;;;7.32;100.00
22261;BME280;11299;43.202;27.920;2023-04-23T03:30:27;101325.81;;;7.04;100.00
22261;BME280;11299;43.202;27.920;2023-04-23T03:32:55;101373.94;;;7.39;100.00
22261;BME280;11299;43.202;27.920;2023-04-23T03:35:24;101227.78;;;6.72;100.00
22261;BME280;11299;43.202;27.920;2023-04-23T03:37:50;101365.81;;;7.57;100.00
22261;BME280;11299;43.202;27.920;2023-04-23T03:40:16;101373.44;;;7.62;100.00
22261;BME280;11299;43.202;27.920;2023-04-23T03:42:41;101345.97;;;7.49;100.00
22261;BME280;11299;43.202;27.920;2023-04-23T03:45:07;101348.03;;;7.53;100.00
22261;BME280;11299;43.202;27.920;2023-04-23T03:47:33;101364.78;;;7.58;100.00
22261;BME280;11299;43.202;27.920;2023-04-23T03:49:58;101316.88;;;7.22;100.00
22261;BME280;11299;43.202;27.920;2023-04-23T03:52:24;101372.34;;;7.70;100.00
22261;BME280;11299;43.202;27.920;2023-04-23T03:54:49;101383.59;;;7.61;100.00
22261;BME280;11299;43.202;27.920;2023-04-23T03:57:15;101250.97;;;6.96;100.00
22261;BME280;11299;43.202;27.920;2023-04-23T03:59:40;101372.34;;;7.70;100.00
22261;BME280;11299;43.202;27.920;2023-04-23T04:02:06;101312.34;;;7.40;100.00
22261;BME280;11299;43.202;27.920;2023-04-23T04:04:32;101314.22;;;7.46;100.00
22261;BME280;11299;43.202;27.920;2023-04-23T04:06:58;101413.09;;;7.92;100.00
22261;BME280;11299;43.202;27.920;2023-04-23T04:09:26;101375.63;;;7.85;100.00
22261;BME280;11299;43.202;27.920;2023-04-23T04:11:52;101393.13;;;7.97;100.00
22261;BME280;11299;43.202;27.920;2023-04-23T04:14:18;101388.88;;;8.01;100.00
22261;BME280;11299;43.202;27.920;2023-04-23T04:16:44;101388.00;;;8.07;100.00
22261;BME280;11299;43.202;27.920;2023-04-23T04:19:09;101407.47;;;8.12;100.00
22261;BME280;11299;43.202;27.920;2023-04-23T04:21:35;101415.75;;;8.12;100.00
22261;BME280;11299;43.202;27.920;2023-04-23T04:24:01;101403.13;;;8.29;100.00
22261;BME280;11299;43.202;27.920;2023-04-23T04:26:27;101379.88;;;8.25;100.00
22261;BME280;11299;43.202;27.920;2023-04-23T04:28:53;101408.78;;;8.40;100.00
22261;BME280;11299;43.202;27.920;2023-04-23T04:31:19;101389.09;;;8.37;100.00
22261;BME280;11299;43.202;27.920;2023-04-23T04:33:46;101387.84;;;8.33;100.00
22261;BME280;11299;43.202;27.920;2023-04-23T04:36:12;101371.31;;;8.33;100.00
22261;BME280;11299;43.202;27.920;2023-04-23T04:38:38;101421.66;;;8.53;100.00
22261;BME280;11299;43.202;27.920;2023-04-23T04:41:04;101405.03;;;8.60;100.00
22261;BME280;11299;43.202;27.920;2023-04-23T04:43:31;101407.25;;;8.51;100.00
22261;BME280;11299;43.202;27.920;2023-04-23T04:45:57;101454.72;;;8.53;100.00
22261;BME280;11299;43.202;27.920;2023-04-23T04:48:26;101391.00;;;8.61;100.00
22261;BME280;11299;43.202;27.920;2023-04-23T04:50:52;101426.47;;;8.82;100.00
22261;BME280;11299;43.202;27.920;2023-04-23T04:53:17;101424.84;;;8.99;100.00
22261;BME280;11299;43.202;27.920;2023-04-23T04:55:42;101383.28;;;8.76;100.00
22261;BME280;11299;43.202;27.920;2023-04-23T04:58:08;101300.38;;;8.28;100.00
22261;BME280;11299;43.202;27.920;2023-04-23T05:00:34;101328.66;;;8.42;100.00
22261;BME280;11299;43.202;27.920;2023-04-23T05:02:59;101381.59;;;8.93;100.00
22261;BME280;11299;43.202;27.920;2023-04-23T05:05:26;101412.06;;;9.05;100.00
22261;BME280;11299;43.202;27.920;2023-04-23T05:07:52;101285.28;;;8.31;100.00
22261;BME280;11299;43.202;27.920;2023-04-23T05:10:23;101439.44;;;9.06;100.00
22261;BME280;11299;43.202;27.920;2023-04-23T05:12:49;101446.78;;;9.12;100.00
22261;BME280;11299;43.202;27.920;2023-04-23T05:15:16;101421.66;;;9.20;100.00
22261;BME280;11299;43.202;27.920;2023-04-23T05:17:41;101414.00;;;9.22;100.00
22261;BME280;11299;43.202;27.920;2023-04-23T05:20:08;101417.63;;;9.41;100.00
22261;BME280;11299;43.202;27.920;2023-04-23T05:22:38;101398.63;;;9.33;100.00
22261;BME280;11299;43.202;27.920;2023-04-23T05:25:05;101406.75;;;9.46;100.00
22261;BME280;11299;43.202;27.920;2023-04-23T05:27:30;101308.50;;;8.84;100.00
22261;BME280;11299;43.202;27.920;2023-04-23T05:29:56;101392.22;;;9.50;100.00
22261;BME280;11299;43.202;27.920;2023-04-23T05:32:21;101387.47;;;9.58;100.00
22261;BME280;11299;43.202;27.920;2023-04-23T05:34:47;101283.97;;;9.12;100.00
22261;BME280;11299;43.202;27.920;2023-04-23T05:37:12;101418.72;;;10.06;100.00
22261;BME280;11299;43.202;27.920;2023-04-23T05:39:37;101410.13;;;10.14;100.00
22261;BME280;11299;43.202;27.920;2023-04-23T05:42:03;101396.13;;;10.27;100.00
22261;BME280;11299;43.202;27.920;2023-04-23T05:44:29;101406.00;;;10.34;100.00
22261;BME280;11299;43.202;27.920;2023-04-23T05:46:54;101354.75;;;10.20;100.00
22261;BME280;11299;43.202;27.920;2023-04-23T05:49:21;101382.81;;;10.47;100.00
22261;BME280;11299;43.202;27.920;2023-04-23T05:51:47;101358.28;;;10.39;100.00
22261;BME280;11299;43.202;27.920;2023-04-23T05:54:12;101372.28;;;10.67;100.00
22261;BME280;11299;43.202;27.920;2023-04-23T05:56:38;101417.78;;;10.94;100.00
22261;BME280;11299;43.202;27.920;2023-04-23T05:59:03;101394.94;;;11.10;100.00
22261;BME280;11299;43.202;27.920;2023-04-23T06:01:29;101387.44;;;11.22;100.00
22261;BME280;11299;43.202;27.920;2023-04-23T06:03:54;101329.00;;;10.61;100.00
22261;BME280;11299;43.202;27.920;2023-04-23T06:06:20;101403.06;;;11.63;100.00
22261;BME280;11299;43.202;27.920;2023-04-23T06:08:45;101283.72;;;11.13;100.00
22261;BME280;11299;43.202;27.920;2023-04-23T06:11:11;101378.19;;;11.91;100.00
22261;BME280;11299;43.202;27.920;2023-04-23T06:13:36;101309.50;;;11.54;100.00
22261;BME280;11299;43.202;27.920;2023-04-23T06:16:06;101379.50;;;12.17;100.00
22261;BME280;11299;43.202;27.920;2023-04-23T06:18:32;101384.34;;;12.38;100.00
22261;BME280;11299;43.202;27.920;2023-04-23T06:20:58;101413.72;;;12.67;100.00
22261;BME280;11299;43.202;27.920;2023-04-23T06:23:28;101412.53;;;12.96;100.00
22261;BME280;11299;43.202;27.920;2023-04-23T06:25:54;101409.56;;;13.14;100.00
22261;BME280;11299;43.202;27.920;2023-04-23T06:28:20;101381.13;;;13.07;100.00
22261;BME280;11299;43.202;27.920;2023-04-23T06:30:45;101292.22;;;12.53;100.00
22261;BME280;11299;43.202;27.920;2023-04-23T06:33:11;101361.91;;;12.89;100.00
22261;BME280;11299;43.202;27.920;2023-04-23T06:35:36;101393.13;;;13.30;100.00
22261;BME280;11299;43.202;27.920;2023-04-23T06:38:02;101287.38;;;12.81;100.00
22261;BME280;11299;43.202;27.920;2023-04-23T06:40:27;101403.09;;;13.69;100.00
22261;BME280;11299;43.202;27.920;2023-04-23T06:42:53;101267.91;;;12.76;100.00
22261;BME280;11299;43.202;27.920;2023-04-23T06:45:18;101310.84;;;13.29;100.00
22261;BME280;11299;43.202;27.920;2023-04-23T06:47:44;101337.97;;;13.60;100.00
22261;BME280;11299;43.202;27.920;2023-04-23T06:50:10;101327.06;;;13.80;100.00
22261;BME280;11299;43.202;27.920;2023-04-23T06:52:36;101384.16;;;14.31;100.00
22261;BME280;11299;43.202;27.920;2023-04-23T06:55:01;101402.19;;;14.55;100.00
22261;BME280;11299;43.202;27.920;2023-04-23T06:57:27;101417.59;;;14.62;100.00
22261;BME280;11299;43.202;27.920;2023-04-23T06:59:52;101390.16;;;14.76;100.00
22261;BME280;11299;43.202;27.920;2023-04-23T07:02:18;101370.91;;;14.74;100.00
22261;BME280;11299;43.202;27.920;2023-04-23T07:04:43;101403.59;;;15.21;100.00
22261;BME280;11299;43.202;27.920;2023-04-23T07:07:09;101404.88;;;15.45;100.00
22261;BME280;11299;43.202;27.920;2023-04-23T07:09:34;101371.88;;;15.32;100.00
22261;BME280;11299;43.202;27.920;2023-04-23T07:12:00;101386.31;;;15.60;100.00
22261;BME280;11299;43.202;27.920;2023-04-23T07:14:26;101387.19;;;15.71;100.00
22261;BME280;11299;43.202;27.920;2023-04-23T07:16:51;101412.97;;;16.03;100.00
22261;BME280;11299;43.202;27.920;2023-04-23T07:19:18;101392.13;;;16.21;100.00
22261;BME280;11299;43.202;27.920;2023-04-23T07:21:44;101356.59;;;15.96;100.00
22261;BME280;11299;43.202;27.920;2023-04-23T07:24:10;101405.34;;;16.55;100.00
22261;BME280;11299;43.202;27.920;2023-04-23T07:26:35;101402.31;;;16.67;100.00
22261;BME280;11299;43.202;27.920;2023-04-23T07:29:02;101359.00;;;16.79;100.00
22261;BME280;11299;43.202;27.920;2023-04-23T07:31:28;101369.06;;;16.96;100.00
22261;BME280;11299;43.202;27.920;2023-04-23T07:33:54;101321.00;;;17.09;100.00
22261;BME280;11299;43.202;27.920;2023-04-23T07:36:20;101270.94;;;17.12;100.00
22261;BME280;11299;43.202;27.920;2023-04-23T07:38:46;101205.28;;;17.00;100.00
22261;BME280;11299;43.202;27.920;2023-04-23T07:41:11;101385.53;;;18.11;100.00
22261;BME280;11299;43.202;27.920;2023-04-23T07:43:38;101311.34;;;17.60;100.00
22261;BME280;11299;43.202;27.920;2023-04-23T07:46:05;101399.13;;;18.43;100.00
22261;BME280;11299;43.202;27.920;2023-04-23T07:48:30;101288.66;;;17.66;100.00
22261;BME280;11299;43.202;27.920;2023-04-23T07:50:56;101485.00;;;18.57;100.00
22261;BME280;11299;43.202;27.920;2023-04-23T07:53:21;101397.75;;;18.79;100.00
22261;BME280;11299;43.202;27.920;2023-04-23T07:55:47;101423.81;;;19.08;100.00
22261;BME280;11299;43.202;27.920;2023-04-23T07:58:13;101387.28;;;18.90;100.00
22261;BME280;11299;43.202;27.920;2023-04-23T08:00:38;101386.59;;;19.03;100.00
22261;BME280;11299;43.202;27.920;2023-04-23T08:03:04;101257.59;;;18.12;100.00
22261;BME280;11299;43.202;27.920;2023-04-23T08:05:30;101287.78;;;18.20;100.00
22261;BME280;11299;43.202;27.920;2023-04-23T08:07:55;101382.94;;;18.73;100.00
22261;BME280;11299;43.202;27.920;2023-04-23T08:10:21;101399.56;;;18.94;100.00
22261;BME280;11299;43.202;27.920;2023-04-23T08:12:46;101278.94;;;18.41;100.00
22261;BME280;11299;43.202;27.920;2023-04-23T08:15:12;101409.44;;;19.20;100.00
22261;BME280;11299;43.202;27.920;2023-04-23T08:17:37;101403.13;;;19.38;100.00
22261;BME280;11299;43.202;27.920;2023-04-23T08:20:03;101365.09;;;19.22;100.00
22261;BME280;11299;43.202;27.920;2023-04-23T08:22:31;101378.78;;;19.28;100.00
22261;BME280;11299;43.202;27.920;2023-04-23T08:24:56;101401.34;;;19.47;100.00
22261;BME280;11299;43.202;27.920;2023-04-23T08:27:22;101388.28;;;19.61;100.00
22261;BME280;11299;43.202;27.920;2023-04-23T08:29:47;101310.03;;;19.31;100.00
22261;BME280;11299;43.202;27.920;2023-04-23T08:32:12;101396.28;;;19.96;100.00
22261;BME280;11299;43.202;27.920;2023-04-23T08:34:38;101371.41;;;20.08;100.00
22261;BME280;11299;43.202;27.920;2023-04-23T08:37:05;101347.41;;;19.97;100.00
22261;BME280;11299;43.202;27.920;2023-04-23T08:39:32;101327.16;;;20.00;100.00
22261;BME280;11299;43.202;27.920;2023-04-23T08:42:04;101291.47;;;20.01;100.00
22261;BME280;11299;43.202;27.920;2023-04-23T08:44:35;101351.16;;;19.69;100.00
22261;BME280;11299;43.202;27.920;2023-04-23T08:47:03;101376.47;;;20.48;100.00
22261;BME280;11299;43.202;27.920;2023-04-23T08:49:32;101267.44;;;19.95;100.00
22261;BME280;11299;43.202;27.920;2023-04-23T08:52:09;101245.88;;;19.90;100.00
22261;BME280;11299;43.202;27.920;2023-04-23T08:54:36;101365.53;;;20.66;100.00
22261;BME280;11299;43.202;27.920;2023-04-23T08:57:04;101381.19;;;20.72;100.00
22261;BME280;11299;43.202;27.920;2023-04-23T08:59:31;101244.38;;;19.79;100.00
22261;BME280;11299;43.202;27.920;2023-04-23T09:01:58;101378.97;;;20.69;100.00
22261;BME280;11299;43.202;27.920;2023-04-23T09:04:26;101371.59;;;20.91;100.00
22261;BME280;11299;43.202;27.920;2023-04-23T09:06:51;101344.03;;;21.07;100.00
22261;BME280;11299;43.202;27.920;2023-04-23T09:09:18;101347.13;;;21.37;100.00
22261;BME280;11299;43.202;27.920;2023-04-23T09:11:47;101390.03;;;21.89;100.00
22261;BME280;11299;43.202;27.920;2023-04-23T09:14:13;101358.94;;;21.80;100.00
22261;BME280;11299;43.202;27.920;2023-04-23T09:16:38;101369.34;;;22.20;100.00
22261;BME280;11299;43.202;27.920;2023-04-23T09:19:08;101277.81;;;21.82;96.07
22261;BME280;11299;43.202;27.920;2023-04-23T09:21:35;101394.22;;;22.54;91.92
22261;BME280;11299;43.202;27.920;2023-04-23T09:24:08;101372.16;;;22.34;82.83
22261;BME280;11299;43.202;27.920;2023-04-23T09:26:35;101394.72;;;22.07;85.97
22261;BME280;11299;43.202;27.920;2023-04-23T09:29:28;101364.16;;;22.27;85.56
22261;BME280;11299;43.202;27.920;2023-04-23T09:32:05;101365.78;;;22.28;82.27
22261;BME280;11299;43.202;27.920;2023-04-23T09:34:33;101374.88;;;22.75;80.69
22261;BME280;11299;43.202;27.920;2023-04-23T09:36:59;101377.44;;;22.63;75.81
22261;BME280;11299;43.202;27.920;2023-04-23T09:39:25;101352.19;;;22.58;76.59
22261;BME280;11299;43.202;27.920;2023-04-23T09:41:51;101357.75;;;22.71;76.84
22261;BME280;11299;43.202;27.920;2023-04-23T09:44:21;101356.94;;;22.71;77.33
22261;BME280;11299;43.202;27.920;2023-04-23T09:46:47;101281.31;;;22.37;79.21
22261;BME280;11299;43.202;27.920;2023-04-23T09:49:13;101238.72;;;22.16;79.38
22261;BME280;11299;43.202;27.920;2023-04-23T09:51:43;101391.59;;;23.15;80.14
22261;BME280;11299;43.202;27.920;2023-04-23T09:56:42;101391.78;;;23.19;76.88
22261;BME280;11299;43.202;27.920;2023-04-23T09:59:28;101378.72;;;23.01;75.21
22261;BME280;11299;43.202;27.920;2023-04-23T10:01:55;101313.22;;;22.82;74.84
22261;BME280;11299;43.202;27.920;2023-04-23T10:04:23;101329.97;;;23.09;73.00
22261;BME280;11299;43.202;27.920;2023-04-23T10:07:02;101386.63;;;23.65;73.40
22261;BME280;11299;43.202;27.920;2023-04-23T10:09:29;101355.41;;;23.40;73.41
22261;BME280;11299;43.202;27.920;2023-04-23T10:11:58;101275.91;;;22.85;69.65
22261;BME280;11299;43.202;27.920;2023-04-23T10:14:27;101371.25;;;23.27;70.24
22261;BME280;11299;43.202;27.920;2023-04-23T10:17:03;101261.28;;;22.38;69.04
22261;BME280;11299;43.202;27.920;2023-04-23T10:19:31;101339.97;;;23.15;70.84
22261;BME280;11299;43.202;27.920;2023-04-23T10:22:03;101321.50;;;23.09;68.97
22261;BME280;11299;43.202;27.920;2023-04-23T10:24:34;101359.25;;;22.69;71.44
22261;BME280;11299;43.202;27.920;2023-04-23T10:27:01;101373.06;;;22.57;74.49
22261;BME280;11299;43.202;27.920;2023-04-23T10:29:34;101376.84;;;22.38;76.37
22261;BME280;11299;43.202;27.920;2023-04-23T10:32:04;101351.66;;;21.93;76.95
22261;BME280;11299;43.202;27.920;2023-04-23T10:34:33;101172.78;;;20.92;79.09
22261;BME280;11299;43.202;27.920;2023-04-23T10:37:00;101349.31;;;21.27;86.47
22261;BME280;11299;43.202;27.920;2023-04-23T10:39:33;101316.09;;;20.97;88.06
22261;BME280;11299;43.202;27.920;2023-04-23T10:42:01;101352.09;;;21.13;91.50
22261;BME280;11299;43.202;27.920;2023-04-23T10:44:38;101344.25;;;21.10;96.36
22261;BME280;11299;43.202;27.920;2023-04-23T10:47:05;101316.78;;;20.89;96.39
22261;BME280;11299;43.202;27.920;2023-04-23T10:49:33;101140.66;;;19.88;98.22
22261;BME280;11299;43.202;27.920;2023-04-23T10:52:01;101315.63;;;20.90;94.61
22261;BME280;11299;43.202;27.920;2023-04-23T10:54:31;101324.81;;;20.95;96.16
22261;BME280;11299;43.202;27.920;2023-04-23T10:57:02;101354.22;;;21.21;95.91
22261;BME280;11299;43.202;27.920;2023-04-23T10:59:29;101332.53;;;21.35;93.45
22261;BME280;11299;43.202;27.920;2023-04-23T11:04:32;101312.63;;;21.32;84.08
22261;BME280;11299;43.202;27.920;2023-04-23T11:07:11;101334.22;;;21.36;84.66
22261;BME280;11299;43.202;27.920;2023-04-23T11:09:41;101360.19;;;20.83;86.12
22261;BME280;11299;43.202;27.920;2023-04-23T11:12:31;101328.75;;;20.06;91.75
22261;BME280;11299;43.202;27.920;2023-04-23T11:14:58;101331.75;;;19.91;97.12
22261;BME280;11299;43.202;27.920;2023-04-23T11:22:57;101314.25;;;21.06;88.09
22261;BME280;11299;43.202;27.920;2023-04-23T11:25:27;101226.31;;;20.87;85.75
22261;BME280;11299;43.202;27.920;2023-04-23T11:27:54;101303.47;;;21.26;84.61
22261;BME280;11299;43.202;27.920;2023-04-23T11:30:28;101317.03;;;21.38;88.82
22261;BME280;11299;43.202;27.920;2023-04-23T11:32:55;101350.38;;;20.99;93.58
22261;BME280;11299;43.202;27.920;2023-04-23T11:35:23;101342.13;;;20.51;97.67
22261;BME280;11299;43.202;27.920;2023-04-23T11:37:52;101320.41;;;20.01;97.93
22261;BME280;11299;43.202;27.920;2023-04-23T11:40:18;101311.41;;;19.62;96.66
22261;BME280;11299;43.202;27.920;2023-04-23T11:42:46;101337.34;;;19.96;100.00
22261;BME280;11299;43.202;27.920;2023-04-23T11:45:23;101261.84;;;19.52;100.00
22261;BME280;11299;43.202;27.920;2023-04-23T11:47:50;101338.44;;;19.24;100.00
22261;BME280;11299;43.202;27.920;2023-04-23T11:50:24;101296.97;;;18.93;100.00
22261;BME280;11299;43.202;27.920;2023-04-23T11:52:50;101315.09;;;19.34;100.00
22261;BME280;11299;43.202;27.920;2023-04-23T11:55:17;101280.34;;;19.30;98.59
22261;BME280;11299;43.202;27.920;2023-04-23T11:57:47;101323.41;;;19.86;100.00
22261;BME280;11299;43.202;27.920;2023-04-23T12:00:18;101069.13;;;18.50;100.00
22261;BME280;11299;43.202;27.920;2023-04-23T12:02:55;101319.81;;;19.62;100.00
22261;BME280;11299;43.202;27.920;2023-04-23T12:07:54;101251.09;;;18.21;100.00
22261;BME280;11299;43.202;27.920;2023-04-23T12:10:20;101257.19;;;18.28;100.00
22261;BME280;11299;43.202;27.920;2023-04-23T12:12:52;101331.44;;;18.64;100.00
22261;BME280;11299;43.202;27.920;2023-04-23T12:15:18;101274.84;;;18.91;100.00
22261;BME280;11299;43.202;27.920;2023-04-23T12:17:51;101181.03;;;18.31;100.00
22261;BME280;11299;43.202;27.920;2023-04-23T12:20:32;101299.56;;;18.55;100.00
22261;BME280;11299;43.202;27.920;2023-04-23T12:23:03;101166.88;;;17.79;100.00
22261;BME280;11299;43.202;27.920;2023-04-23T12:25:29;101170.97;;;17.53;100.00
22261;BME280;11299;43.202;27.920;2023-04-23T12:27:58;101301.34;;;18.41;100.00
22261;BME280;11299;43.202;27.920;2023-04-23T12:30:27;101307.09;;;18.21;100.00
22261;BME280;11299;43.202;27.920;2023-04-23T12:32:58;101181.38;;;17.42;100.00
22261;BME280;11299;43.202;27.920;2023-04-23T12:36:09;101295.63;;;18.18;100.00
22261;BME280;11299;43.202;27.920;2023-04-23T12:38:35;101181.94;;;17.88;100.00
22261;BME280;11299;43.202;27.920;2023-04-23T12:41:00;101274.38;;;18.84;100.00
22261;BME280;11299;43.202;27.920;2023-04-23T12:43:26;101282.63;;;18.70;100.00
22261;BME280;11299;43.202;27.920;2023-04-23T12:45:53;101287.38;;;19.04;100.00
22261;BME280;11299;43.202;27.920;2023-04-23T12:48:19;101177.97;;;18.28;100.00